Time;durP1;ratioP1;P1;durP2;ratioP2;P2;SDS_P1;SDS_P2;PMS_P1;PMS_P2;Temp;Humidity;BMP_temperature;BMP_pressure;BME280_temperature;BME280_humidity;BME280_pressure;Samples;Min_cycle;Max_cycle;Signal;HPM_P1;HPM_P2
2022/12/07 00:01:50;;;;;;;9.57;1.50;;;4.00;99.90;;;;;;5021868;28;20405;-87
2022/12/07 00:04:19;;;;;;;10.88;1.88;;;4.00;99.90;;;;;;5022701;28;20188;-88
2022/12/07 00:06:49;;;;;;;7.50;1.45;;;4.00;99.90;;;;;;5037347;28;20075;-88
2022/12/07 00:09:17;;;;;;;5.22;1.33;;;4.00;99.90;;;;;;5054636;28;20037;-88
2022/12/07 00:11:43;;;;;;;10.05;1.30;;;4.10;99.90;;;;;;5020578;28;20391;-88
2022/12/07 00:14:15;;;;;;;4.75;1.08;;;4.10;99.90;;;;;;5022307;28;20068;-88
2022/12/07 00:16:42;;;;;;;6.22;1.35;;;4.10;99.90;;;;;;5056560;28;20047;-88
2022/12/07 00:19:11;;;;;;;7.65;1.30;;;4.10;99.90;;;;;;5019340;28;20044;-88
2022/12/07 00:21:36;;;;;;;4.28;0.98;;;4.10;99.90;;;;;;5019868;28;20135;-88
2022/12/07 00:24:05;;;;;;;4.70;1.13;;;4.00;99.90;;;;;;5026679;28;20125;-88
2022/12/07 00:26:33;;;;;;;6.43;1.10;;;3.90;99.90;;;;;;5020591;28;20056;-89
2022/12/07 00:29:05;;;;;;;7.45;1.45;;;3.80;99.90;;;;;;5037378;28;20585;-88
2022/12/07 00:31:38;;;;;;;4.70;1.52;;;3.70;99.90;;;;;;5042835;28;20492;-88
2022/12/07 00:34:05;;;;;;;3.60;1.13;;;3.70;99.90;;;;;;5040699;28;20044;-89
2022/12/07 00:36:31;;;;;;;5.60;1.10;;;3.70;99.90;;;;;;5037412;28;20045;-88
2022/12/07 00:39:01;;;;;;;11.13;2.05;;;3.70;99.90;;;;;;5035555;28;20056;-88
2022/12/07 00:41:28;;;;;;;6.47;1.25;;;3.70;99.90;;;;;;5036761;28;20036;-89
2022/12/07 00:43:54;;;;;;;5.38;1.13;;;3.70;99.90;;;;;;5022647;28;20033;-87
2022/12/07 00:46:23;;;;;;;9.00;1.73;;;3.60;99.90;;;;;;5020114;28;20109;-87
2022/12/07 00:48:50;;;;;;;8.77;1.52;;;3.60;99.90;;;;;;5023902;28;20048;-88
2022/12/07 00:51:18;;;;;;;5.95;1.27;;;3.60;99.90;;;;;;5019926;28;20047;-88
2022/12/07 00:53:44;;;;;;;10.27;1.48;;;3.70;99.90;;;;;;5025449;28;20127;-88
2022/12/07 00:56:17;;;;;;;8.95;1.30;;;3.70;99.90;;;;;;5022459;28;20072;-88
2022/12/07 00:58:43;;;;;;;5.65;1.05;;;3.70;99.90;;;;;;5036263;28;20132;-88
2022/12/07 01:01:10;;;;;;;6.93;1.50;;;3.70;99.90;;;;;;5021881;28;20056;-88
2022/12/07 01:03:37;;;;;;;3.60;1.00;;;3.70;99.90;;;;;;5025367;28;20045;-88
2022/12/07 01:06:04;;;;;;;5.50;1.35;;;3.80;99.90;;;;;;5030656;28;20442;-88
2022/12/07 01:08:30;;;;;;;7.53;1.20;;;3.90;99.90;;;;;;5024368;28;20118;-88
2022/12/07 01:11:05;;;;;;;5.60;1.63;;;3.90;99.90;;;;;;5026431;28;20049;-88
2022/12/07 01:13:32;;;;;;;12.05;1.20;;;4.00;99.90;;;;;;5020041;28;20171;-88
2022/12/07 01:16:00;;;;;;;4.63;1.08;;;4.10;99.90;;;;;;5020802;28;20047;-88
2022/12/07 01:18:31;;;;;;;4.15;1.00;;;4.00;99.90;;;;;;5022114;28;20063;-87
2022/12/07 01:21:16;;;;;;;6.45;0.77;;;4.10;99.90;;;;;;5044835;28;20040;-88
2022/12/07 01:23:45;;;;;;;7.28;0.93;;;4.10;99.90;;;;;;5020313;28;20617;-89
2022/12/07 01:26:14;;;;;;;7.63;0.90;;;4.10;99.90;;;;;;5023473;28;20103;-88
2022/12/07 01:28:41;;;;;;;9.05;1.35;;;4.10;99.90;;;;;;5019020;28;20067;-87
2022/12/07 01:31:18;;;;;;;2.65;0.80;;;4.10;99.90;;;;;;5036789;28;20043;-87
2022/12/07 01:33:47;;;;;;;6.65;1.15;;;4.00;99.90;;;;;;5016792;28;20045;-88
2022/12/07 01:36:16;;;;;;;3.05;0.80;;;3.90;99.90;;;;;;5019028;28;20442;-88
2022/12/07 01:38:43;;;;;;;9.05;1.40;;;4.00;99.90;;;;;;5032461;28;20049;-87
2022/12/07 01:41:09;;;;;;;4.60;0.80;;;4.00;99.90;;;;;;5020611;28;20052;-87
2022/12/07 01:43:37;;;;;;;6.40;0.90;;;4.00;99.90;;;;;;5019746;28;20036;-88
2022/12/07 01:46:04;;;;;;;3.88;0.75;;;4.10;99.90;;;;;;5022840;28;20132;-88
2022/12/07 01:48:41;;;;;;;3.35;1.15;;;4.20;99.90;;;;;;5020984;28;20604;-88
2022/12/07 01:51:13;;;;;;;4.72;0.88;;;4.20;99.90;;;;;;5038261;28;20032;-88
2022/12/07 01:53:44;;;;;;;4.55;0.80;;;4.10;99.90;;;;;;5026106;28;20033;-88
2022/12/07 01:57:06;;;;;;;7.15;1.10;;;4.10;99.90;;;;;;5023255;28;20035;-88
2022/12/07 01:59:32;;;;;;;2.53;0.65;;;4.10;99.90;;;;;;5015384;28;20040;-87
2022/12/07 02:01:57;;;;;;;4.22;0.80;;;4.00;99.90;;;;;;5025494;28;20098;-88
2022/12/07 02:04:24;;;;;;;5.10;0.75;;;4.00;99.90;;;;;;5024642;28;20135;-88
2022/12/07 02:06:51;;;;;;;4.45;0.63;;;3.90;99.90;;;;;;5022277;28;20349;-86
2022/12/07 02:09:17;;;;;;;4.03;0.90;;;3.90;99.90;;;;;;5034654;28;20155;-88
2022/12/07 02:11:46;;;;;;;8.00;1.45;;;3.90;99.90;;;;;;5038952;28;20075;-87
2022/12/07 02:14:12;;;;;;;7.38;1.10;;;3.90;99.90;;;;;;5023480;28;20037;-89
2022/12/07 02:17:00;;;;;;;7.45;1.02;;;3.80;99.90;;;;;;5040883;28;20376;-88
2022/12/07 02:19:38;;;;;;;8.32;1.30;;;3.90;99.90;;;;;;5057946;28;20551;-88
2022/12/07 02:22:16;;;;;;;5.82;1.33;;;3.90;99.90;;;;;;5021403;28;20048;-88
2022/12/07 02:25:19;;;;;;;6.22;0.98;;;3.90;99.90;;;;;;5038004;28;20061;-88
2022/12/07 02:27:52;;;;;;;5.68;1.30;;;3.80;99.90;;;;;;5024201;28;20064;-88
2022/12/07 02:30:20;;;;;;;8.00;1.42;;;3.80;99.90;;;;;;5035800;28;20070;-87
2022/12/07 02:33:16;;;;;;;5.93;1.25;;;3.80;99.90;;;;;;5017668;28;20052;-88
2022/12/07 02:35:56;;;;;;;4.70;0.85;;;3.90;99.90;;;;;;5020288;28;20124;-87
2022/12/07 02:38:28;;;;;;;5.38;1.15;;;3.90;99.90;;;;;;5022290;28;20040;-88
2022/12/07 02:41:05;;;;;;;7.90;1.08;;;3.90;99.90;;;;;;5023999;28;20041;-88
2022/12/07 02:44:17;;;;;;;2.78;1.35;;;3.90;99.90;;;;;;5020822;28;20033;-87
2022/12/07 02:46:48;;;;;;;12.23;1.88;;;4.00;99.90;;;;;;5021600;28;20049;-89
2022/12/07 02:49:15;;;;;;;5.82;1.02;;;4.00;99.90;;;;;;5041366;28;20048;-87
2022/12/07 02:51:46;;;;;;;5.10;0.90;;;4.20;99.90;;;;;;5038328;28;20041;-88
2022/12/07 02:54:13;;;;;;;2.63;0.98;;;4.30;99.90;;;;;;5021639;28;20332;-89
2022/12/07 02:56:44;;;;;;;4.47;0.95;;;4.50;99.90;;;;;;5018146;28;20471;-89
2022/12/07 02:59:24;;;;;;;4.85;0.80;;;4.50;99.90;;;;;;5035762;28;20225;-88
2022/12/07 03:02:36;;;;;;;2.97;0.63;;;4.50;99.90;;;;;;5019699;28;20041;-90
2022/12/07 03:05:07;;;;;;;4.82;0.77;;;4.60;99.90;;;;;;5041322;28;20056;-87
2022/12/07 03:07:58;;;;;;;4.82;0.82;;;4.60;99.90;;;;;;5054736;28;20079;-89
2022/12/07 03:10:36;;;;;;;4.50;0.93;;;4.60;99.90;;;;;;5025358;28;20261;-89
2022/12/07 03:13:19;;;;;;;4.78;1.00;;;4.60;99.90;;;;;;5022350;28;20033;-88
2022/12/07 03:16:01;;;;;;;3.28;0.73;;;4.60;99.90;;;;;;5069238;28;20059;-89
2022/12/07 03:18:37;;;;;;;6.03;0.70;;;4.60;99.90;;;;;;5022375;28;20781;-88
2022/12/07 03:21:09;;;;;;;5.40;0.98;;;4.60;99.90;;;;;;5021210;28;20115;-89
2022/12/07 03:23:38;;;;;;;5.88;0.70;;;4.70;99.90;;;;;;5024601;28;20140;-88
2022/12/07 03:26:08;;;;;;;4.03;0.85;;;4.60;99.90;;;;;;5034476;28;20044;-87
2022/12/07 03:28:40;;;;;;;5.97;1.00;;;4.50;99.90;;;;;;5048345;28;20043;-88
2022/12/07 03:31:23;;;;;;;2.05;0.60;;;4.50;99.90;;;;;;5016343;28;20168;-89
2022/12/07 03:34:03;;;;;;;2.63;0.80;;;4.40;99.90;;;;;;5032782;28;20041;-88
2022/12/07 03:36:54;;;;;;;6.75;0.98;;;4.40;99.90;;;;;;5016650;28;20111;-88
2022/12/07 03:39:33;;;;;;;1.80;0.70;;;4.40;99.90;;;;;;5020919;28;20440;-87
2022/12/07 03:42:01;;;;;;;5.35;1.10;;;4.40;99.90;;;;;;5020724;28;20094;-90
2022/12/07 03:44:28;;;;;;;5.13;1.05;;;4.30;99.90;;;;;;5018647;28;20440;-88
2022/12/07 03:47:03;;;;;;;6.63;1.10;;;4.30;99.90;;;;;;5016442;28;20436;-88
2022/12/07 03:49:42;;;;;;;2.28;0.75;;;4.30;99.90;;;;;;5034421;28;20040;-89
2022/12/07 03:52:32;;;;;;;5.80;1.33;;;4.30;99.90;;;;;;5021162;28;20568;-88
2022/12/07 03:55:20;;;;;;;3.35;1.40;;;4.30;99.90;;;;;;5016621;28;20041;-88
2022/12/07 03:57:50;;;;;;;6.03;1.48;;;4.20;99.90;;;;;;5016271;28;20041;-88
2022/12/07 04:00:16;;;;;;;4.18;0.95;;;4.30;99.90;;;;;;5033331;28;20556;-88
2022/12/07 04:02:42;;;;;;;5.88;1.70;;;4.20;99.90;;;;;;5021636;28;20231;-88
2022/12/07 04:05:08;;;;;;;5.70;1.20;;;4.20;99.90;;;;;;5025238;28;20033;-88
2022/12/07 04:07:34;;;;;;;2.22;0.70;;;4.20;99.90;;;;;;5018558;28;20037;-88
2022/12/07 04:10:00;;;;;;;4.55;1.05;;;4.20;99.90;;;;;;5017473;28;20520;-88
2022/12/07 04:12:25;;;;;;;8.05;1.10;;;4.10;99.90;;;;;;5016282;28;20033;-88
2022/12/07 04:14:51;;;;;;;9.57;1.33;;;4.00;99.90;;;;;;5019655;28;20047;-88
2022/12/07 04:17:17;;;;;;;6.10;1.10;;;4.00;99.90;;;;;;5021386;28;20474;-88
2022/12/07 04:19:45;;;;;;;13.88;1.20;;;3.90;99.90;;;;;;5026281;28;20041;-89
2022/12/07 04:22:11;;;;;;;6.32;1.35;;;3.80;99.90;;;;;;5032539;28;20595;-87
2022/12/07 04:24:37;;;;;;;5.22;1.10;;;3.80;99.90;;;;;;5017329;28;20493;-88
2022/12/07 04:27:03;;;;;;;2.03;0.80;;;3.80;99.90;;;;;;5014000;28;20049;-89
2022/12/07 04:29:28;;;;;;;3.58;0.88;;;3.70;99.90;;;;;;5017427;28;20512;-88
2022/12/07 04:31:54;;;;;;;4.47;0.90;;;3.60;99.90;;;;;;5016622;28;20361;-88
2022/12/07 04:34:20;;;;;;;8.20;1.00;;;3.70;99.90;;;;;;5016563;28;20122;-88
2022/12/07 04:36:49;;;;;;;5.35;1.20;;;3.70;99.90;;;;;;5016486;28;20056;-88
2022/12/07 04:39:44;;;;;;;3.72;0.98;;;3.60;99.90;;;;;;5032125;28;20079;-88
2022/12/07 04:42:12;;;;;;;8.23;1.17;;;3.60;99.90;;;;;;5023466;28;20068;-87
2022/12/07 04:44:38;;;;;;;3.03;0.82;;;3.50;99.90;;;;;;5019864;28;20041;-88
2022/12/07 04:47:04;;;;;;;2.70;0.80;;;3.50;99.90;;;;;;5035146;28;20059;-88
2022/12/07 04:49:29;;;;;;;9.07;1.08;;;3.50;99.90;;;;;;5024443;28;20455;-88
2022/12/07 04:51:55;;;;;;;9.55;1.20;;;3.50;99.90;;;;;;5016987;28;20583;-88
2022/12/07 04:54:21;;;;;;;7.43;1.02;;;3.50;99.90;;;;;;5029082;28;20037;-87
2022/12/07 04:56:50;;;;;;;9.73;1.35;;;3.60;99.90;;;;;;5032964;28;20078;-88
2022/12/07 04:59:17;;;;;;;4.78;0.98;;;3.70;99.90;;;;;;5015046;28;20112;-88
2022/12/07 05:01:43;;;;;;;5.80;1.17;;;3.70;99.90;;;;;;5030399;28;20080;-88
2022/12/07 05:04:09;;;;;;;12.30;1.10;;;3.80;99.90;;;;;;5029348;28;20515;-88
2022/12/07 05:06:35;;;;;;;5.38;1.17;;;4.00;99.90;;;;;;5017944;28;20071;-88
2022/12/07 05:09:01;;;;;;;6.10;0.77;;;4.00;99.90;;;;;;5018748;28;20056;-89
2022/12/07 05:11:39;;;;;;;5.90;0.82;;;4.00;99.90;;;;;;5011606;28;20452;-89
2022/12/07 05:14:19;;;;;;;6.70;0.98;;;4.00;99.90;;;;;;5031247;28;20488;-89
2022/12/07 05:16:48;;;;;;;4.82;0.95;;;3.80;99.90;;;;;;5018582;28;20117;-88
2022/12/07 05:19:14;;;;;;;7.80;1.05;;;3.80;99.90;;;;;;5016057;28;20091;-88
2022/12/07 05:21:40;;;;;;;7.05;1.55;;;3.80;99.90;;;;;;5017127;28;20116;-88
2022/12/07 05:24:07;;;;;;;4.45;0.95;;;3.80;99.90;;;;;;5013166;28;20060;-89
2022/12/07 05:26:34;;;;;;;5.53;0.98;;;3.80;99.90;;;;;;5020040;28;20412;-88
2022/12/07 05:29:00;;;;;;;7.78;1.00;;;3.80;99.90;;;;;;5017741;28;20037;-89
2022/12/07 05:31:30;;;;;;;9.13;1.30;;;3.70;99.90;;;;;;5018480;28;20547;-88
2022/12/07 05:33:56;;;;;;;7.85;1.23;;;3.70;99.90;;;;;;5020047;28;20229;-88
2022/12/07 05:36:22;;;;;;;7.32;0.82;;;3.70;99.90;;;;;;5026635;28;20037;-88
2022/12/07 05:38:48;;;;;;;5.25;0.95;;;3.70;99.90;;;;;;5039144;28;20043;-87
2022/12/07 05:44:01;;;;;;;9.07;0.95;;;3.50;99.90;;;;;;5034065;28;20080;-88
2022/12/07 05:46:26;;;;;;;4.10;0.90;;;3.50;99.90;;;;;;5019838;28;20061;-88
2022/12/07 05:48:52;;;;;;;6.32;0.95;;;3.40;99.90;;;;;;5017977;28;20261;-88
2022/12/07 05:51:18;;;;;;;6.53;2.35;;;3.30;99.90;;;;;;5021205;28;20109;-88
2022/12/07 05:53:45;;;;;;;4.30;1.00;;;3.30;99.90;;;;;;5020570;28;20048;-88
2022/12/07 05:56:10;;;;;;;2.90;0.75;;;3.30;99.90;;;;;;5022424;28;20040;-87
2022/12/07 06:01:23;;;;;;;8.35;1.02;;;3.10;99.90;;;;;;5037233;28;20048;-88
2022/12/07 06:03:49;;;;;;;6.40;1.20;;;3.10;99.90;;;;;;5020909;28;20047;-87
2022/12/07 06:06:14;;;;;;;8.73;1.42;;;3.10;99.90;;;;;;5023656;28;20049;-88
2022/12/07 06:08:40;;;;;;;8.43;1.38;;;3.10;99.90;;;;;;5017991;28;20056;-88
2022/12/07 06:13:50;;;;;;;7.00;1.60;;;3.00;99.90;;;;;;5036287;28;20037;-87
2022/12/07 06:16:18;;;;;;;8.98;1.27;;;3.10;99.90;;;;;;5017178;28;20447;-88
2022/12/07 06:18:44;;;;;;;6.25;1.33;;;3.00;99.90;;;;;;5037197;28;20124;-87
2022/12/07 06:21:10;;;;;;;6.45;1.55;;;3.10;99.90;;;;;;5036408;28;20170;-88
2022/12/07 06:23:35;;;;;;;9.65;1.95;;;3.10;99.90;;;;;;5034429;28;20525;-87
2022/12/07 06:26:01;;;;;;;11.07;1.80;;;3.00;99.90;;;;;;5035721;28;20664;-87
2022/12/07 06:28:27;;;;;;;7.05;1.60;;;3.10;99.90;;;;;;5033216;28;20071;-87
2022/12/07 06:31:02;;;;;;;5.90;0.95;;;3.20;99.90;;;;;;5022553;28;20044;-88
2022/12/07 06:33:28;;;;;;;4.97;1.15;;;3.30;99.90;;;;;;5034325;28;20177;-88
2022/12/07 06:35:54;;;;;;;3.45;1.38;;;3.50;99.90;;;;;;5021915;28;20120;-88
2022/12/07 06:38:20;;;;;;;6.97;1.30;;;3.60;99.90;;;;;;5020147;28;20039;-88
2022/12/07 06:40:46;;;;;;;7.85;1.45;;;3.60;99.90;;;;;;5019630;28;20401;-88
2022/12/07 06:43:14;;;;;;;6.97;1.15;;;3.50;99.90;;;;;;5018714;28;20040;-88
2022/12/07 06:45:41;;;;;;;9.02;1.33;;;3.50;99.90;;;;;;5035017;28;20045;-88
2022/12/07 06:48:06;;;;;;;6.50;1.33;;;3.40;99.90;;;;;;5032757;28;20037;-88
2022/12/07 06:50:32;;;;;;;5.50;1.30;;;3.50;99.90;;;;;;5017293;28;20134;-89
2022/12/07 06:53:01;;;;;;;6.30;1.50;;;3.40;99.90;;;;;;5034517;28;20041;-88
2022/12/07 06:55:28;;;;;;;7.32;1.23;;;3.30;99.90;;;;;;5038891;28;20834;-88
2022/12/07 06:57:56;;;;;;;7.07;1.15;;;3.20;99.90;;;;;;5025074;28;20055;-88
2022/12/07 07:00:22;;;;;;;4.85;1.10;;;3.10;99.90;;;;;;5026930;28;20029;-88
2022/12/07 07:02:48;;;;;;;7.50;1.20;;;3.10;99.90;;;;;;5028618;28;20045;-88
2022/12/07 07:05:15;;;;;;;7.72;1.08;;;3.00;99.90;;;;;;5022400;28;20488;-87
2022/12/07 07:07:41;;;;;;;7.97;1.33;;;3.00;99.90;;;;;;5024275;28;20040;-88
2022/12/07 07:10:07;;;;;;;5.55;1.20;;;2.90;99.90;;;;;;5025538;28;20051;-87
2022/12/07 07:12:33;;;;;;;7.07;1.25;;;2.90;99.90;;;;;;5026513;28;20037;-88
2022/12/07 07:14:58;;;;;;;4.30;0.90;;;2.90;99.90;;;;;;5023240;28;20782;-88
2022/12/07 07:17:24;;;;;;;7.25;1.10;;;2.90;99.90;;;;;;5040743;28;20041;-88
2022/12/07 07:19:53;;;;;;;5.72;1.17;;;3.00;99.90;;;;;;5025436;28;20041;-87
2022/12/07 07:22:19;;;;;;;3.42;0.85;;;3.00;99.90;;;;;;5021559;28;20388;-88
2022/12/07 07:24:45;;;;;;;6.38;1.15;;;3.10;99.90;;;;;;5025391;28;20053;-89
2022/12/07 07:27:14;;;;;;;4.53;0.98;;;3.10;99.90;;;;;;5042777;28;20068;-88
2022/12/07 07:29:39;;;;;;;3.47;1.00;;;3.20;99.90;;;;;;5029723;28;20048;-89
2022/12/07 07:32:05;;;;;;;7.55;1.00;;;3.10;99.90;;;;;;5044175;28;20033;-87
2022/12/07 07:34:31;;;;;;;3.15;1.17;;;3.30;99.90;;;;;;5036414;28;20075;-89
2022/12/07 07:36:57;;;;;;;7.35;1.33;;;3.20;99.90;;;;;;5032545;28;20416;-89
2022/12/07 07:39:22;;;;;;;6.50;1.13;;;3.20;99.90;;;;;;5032332;28;20067;-88
2022/12/07 07:41:48;;;;;;;9.50;1.20;;;3.20;99.90;;;;;;5045076;28;20387;-88
2022/12/07 07:44:14;;;;;;;5.38;1.30;;;3.20;99.90;;;;;;5025267;28;20049;-87
2022/12/07 07:46:43;;;;;;;4.53;1.20;;;3.20;99.90;;;;;;5027415;28;20044;-88
2022/12/07 07:49:10;;;;;;;7.70;1.30;;;3.20;99.90;;;;;;5026311;28;20781;-88
2022/12/07 07:51:36;;;;;;;7.10;1.00;;;3.20;99.90;;;;;;5025312;28;20488;-86
2022/12/07 07:54:02;;;;;;;5.38;1.15;;;3.10;99.90;;;;;;5023584;28;20044;-88
2022/12/07 07:56:28;;;;;;;4.82;0.85;;;3.00;99.90;;;;;;5023873;28;20075;-89
2022/12/07 07:58:54;;;;;;;7.50;1.08;;;2.90;99.90;;;;;;5019488;28;20104;-87
2022/12/07 08:01:20;;;;;;;6.85;1.27;;;2.90;99.90;;;;;;5025271;28;20040;-88
2022/12/07 08:03:46;;;;;;;5.47;1.10;;;2.80;99.90;;;;;;5022406;28;20041;-88
2022/12/07 08:06:13;;;;;;;3.10;1.20;;;2.70;99.90;;;;;;5025552;28;20055;-87
2022/12/07 08:08:39;;;;;;;4.72;0.95;;;2.80;99.90;;;;;;5060086;22;20088;-88
2022/12/07 08:11:06;;;;;;;9.35;1.30;;;2.80;99.90;;;;;;5064645;28;20400;-88
2022/12/07 08:13:32;;;;;;;6.30;1.10;;;2.90;99.90;;;;;;5059144;28;20044;-88
2022/12/07 08:15:58;;;;;;;9.10;1.20;;;2.90;99.90;;;;;;5059804;28;20142;-88
2022/12/07 08:18:28;;;;;;;5.05;1.02;;;3.00;99.90;;;;;;5076836;28;20550;-88
2022/12/07 08:26:17;;;;;;;7.75;1.55;;;3.30;99.90;;;;;;5033220;28;20052;-90
2022/12/07 08:28:53;;;;;;;3.85;0.93;;;3.30;99.90;;;;;;5032731;28;20496;-87
2022/12/07 08:31:18;;;;;;;5.22;1.15;;;3.30;99.90;;;;;;5007454;28;20060;-88
2022/12/07 08:33:48;;;;;;;5.50;1.55;;;3.30;99.90;;;;;;5000861;28;20650;-88
2022/12/07 08:36:14;;;;;;;9.30;1.35;;;3.30;99.90;;;;;;5005464;28;20048;-88
2022/12/07 08:38:41;;;;;;;8.43;1.67;;;3.30;99.90;;;;;;5005694;28;20039;-88
2022/12/07 08:41:08;;;;;;;7.05;1.40;;;3.30;99.90;;;;;;4999211;28;20445;-87
2022/12/07 08:43:35;;;;;;;6.50;1.20;;;3.30;99.90;;;;;;5001822;28;20041;-88
2022/12/07 08:46:06;;;;;;;4.85;1.25;;;3.40;99.90;;;;;;5003584;28;20045;-86
2022/12/07 08:48:34;;;;;;;8.15;1.25;;;3.40;99.90;;;;;;5015176;28;20151;-88
2022/12/07 08:51:02;;;;;;;7.80;1.60;;;3.50;99.90;;;;;;5002239;28;20050;-88
2022/12/07 08:53:29;;;;;;;9.70;1.85;;;3.50;99.90;;;;;;5019639;28;20592;-88
2022/12/07 08:55:57;;;;;;;5.15;1.50;;;3.50;99.90;;;;;;5023344;28;20067;-87
2022/12/07 08:58:27;;;;;;;8.68;1.70;;;3.50;99.90;;;;;;4996122;28;20149;-88
2022/12/07 09:00:52;;;;;;;5.28;1.60;;;3.60;99.90;;;;;;5016706;28;20045;-89
2022/12/07 09:03:18;;;;;;;6.57;1.58;;;3.70;99.90;;;;;;5003783;28;20130;-89
2022/12/07 09:05:44;;;;;;;5.68;1.55;;;3.70;99.90;;;;;;5008218;28;20086;-87
2022/12/07 09:08:11;;;;;;;9.68;1.80;;;3.80;99.90;;;;;;5002711;28;20262;-89
2022/12/07 09:10:36;;;;;;;4.97;1.55;;;3.80;99.90;;;;;;5016499;28;20084;-89
2022/12/07 09:13:02;;;;;;;9.45;1.50;;;3.80;99.90;;;;;;5002426;28;20059;-88
2022/12/07 09:15:31;;;;;;;7.18;1.73;;;3.90;99.90;;;;;;5003389;28;20562;-88
2022/12/07 09:17:59;;;;;;;7.18;1.95;;;4.00;99.90;;;;;;5013464;28;20033;-88
2022/12/07 09:21:09;;;;;;;4.75;1.63;;;4.10;99.90;;;;;;4998176;28;20049;-88
2022/12/07 09:23:35;;;;;;;7.45;1.33;;;4.10;99.90;;;;;;5010789;28;20051;-88
2022/12/07 09:26:02;;;;;;;6.72;1.50;;;4.20;99.90;;;;;;5004430;28;20122;-87
2022/12/07 09:28:28;;;;;;;6.55;1.73;;;4.30;99.90;;;;;;5016649;28;20512;-88
2022/12/07 09:30:54;;;;;;;14.98;1.70;;;4.50;99.90;;;;;;5001229;28;20592;-88
2022/12/07 09:33:20;;;;;;;8.93;1.65;;;4.60;99.90;;;;;;5019592;28;20064;-88
2022/12/07 09:35:49;;;;;;;11.38;2.05;;;4.70;99.90;;;;;;5014108;28;20577;-88
2022/12/07 09:38:19;;;;;;;7.13;1.67;;;4.70;99.90;;;;;;5037781;28;20116;-88
2022/12/07 09:40:46;;;;;;;6.82;1.95;;;4.70;99.90;;;;;;5017871;28;20503;-87
2022/12/07 09:43:35;;;;;;;7.35;1.83;;;4.80;99.90;;;;;;5000297;28;20936;-86
2022/12/07 09:46:02;;;;;;;12.48;1.80;;;4.80;99.90;;;;;;5006812;28;20476;-87
2022/12/07 09:48:37;;;;;;;7.90;1.60;;;4.70;99.90;;;;;;5001902;28;20053;-88
2022/12/07 09:51:17;;;;;;;7.60;1.85;;;4.70;99.90;;;;;;5014268;28;20115;-88
2022/12/07 09:53:44;;;;;;;5.57;1.40;;;4.60;99.90;;;;;;5035994;28;20076;-88
2022/12/07 09:56:14;;;;;;;6.82;1.63;;;4.60;99.90;;;;;;4997960;28;20085;-88
2022/12/07 10:01:18;;;;;;;8.25;1.40;;;4.60;99.90;;;;;;4996317;28;20124;-88
2022/12/07 10:03:58;;;;;;;10.13;1.42;;;4.70;99.90;;;;;;4963951;28;20049;-88
2022/12/07 10:06:24;;;;;;;6.97;1.50;;;4.70;99.90;;;;;;4982705;28;20088;-88
2022/12/07 10:08:53;;;;;;;4.53;1.23;;;4.80;99.90;;;;;;4973111;28;20050;-88
2022/12/07 10:11:19;;;;;;;4.10;1.15;;;4.80;99.90;;;;;;4979416;28;20042;-89
2022/12/07 10:13:53;;;;;;;7.68;1.25;;;4.80;99.90;;;;;;4981103;28;20045;-88
2022/12/07 10:16:41;;;;;;;8.13;1.35;;;4.80;99.90;;;;;;4985531;28;20328;-88
2022/12/07 10:23:04;;;;;;;3.80;1.10;;;4.80;99.90;;;;;;5011040;28;20504;-88
2022/12/07 10:25:36;;;;;;;6.20;1.13;;;4.80;99.90;;;;;;4998860;28;20073;-88
2022/12/07 10:28:08;;;;;;;3.55;1.30;;;4.80;99.90;;;;;;4976907;28;20103;-88
2022/12/07 10:30:51;;;;;;;7.05;1.98;;;4.90;99.90;;;;;;4980471;28;20140;-88
2022/12/07 10:33:31;;;;;;;5.22;1.25;;;4.90;99.90;;;;;;4979260;28;20500;-88
2022/12/07 10:35:57;;;;;;;4.18;1.40;;;5.00;99.90;;;;;;4981188;28;20050;-88
2022/12/07 10:38:31;;;;;;;4.32;1.17;;;5.00;99.90;;;;;;4962754;28;20042;-88
2022/12/07 10:41:06;;;;;;;7.45;1.45;;;5.10;99.90;;;;;;4963641;28;20339;-88
2022/12/07 10:43:32;;;;;;;;;;;5.20;99.90;;;;;;4960208;28;20045;-88
2022/12/07 10:46:28;;;;;;;12.80;1.55;;;5.30;99.90;;;;;;4983936;28;19921;-88
2022/12/07 10:49:24;;;;;;;7.47;1.67;;;5.50;99.90;;;;;;4982498;28;20072;-88
2022/12/07 10:52:21;;;;;;;6.40;1.38;;;5.70;99.90;;;;;;4999595;28;20037;-88
2022/12/07 10:55:17;;;;;;;9.52;2.10;;;5.70;99.90;;;;;;4984648;28;20045;-88
2022/12/07 10:57:58;;;;;;;5.28;1.63;;;5.90;99.90;;;;;;4983837;28;20064;-88
2022/12/07 11:00:25;;;;;;;5.95;1.40;;;5.90;99.90;;;;;;4978130;28;20209;-88
2022/12/07 11:03:26;;;;;;;8.25;2.00;;;6.00;99.90;;;;;;4981149;28;20057;-88
2022/12/07 11:06:29;;;;;;;5.80;1.45;;;6.00;99.90;;;;;;4986715;28;20095;-88
2022/12/07 11:09:25;;;;;;;8.10;1.70;;;6.00;99.90;;;;;;4979449;28;20038;-88
2022/12/07 11:12:28;;;;;;;10.27;1.80;;;5.70;99.90;;;;;;4951305;28;20321;-88
2022/12/07 11:15:06;;;;;;;8.25;1.33;;;5.50;99.90;;;;;;4953867;28;20586;-89
2022/12/07 11:17:51;;;;;;;3.95;1.40;;;5.30;99.90;;;;;;4987699;28;20540;-88
2022/12/07 11:20:46;;;;;;;5.23;1.40;;;5.10;99.90;;;;;;4985845;28;20042;-89
2022/12/07 11:23:21;;;;;;;;;;;4.70;99.90;;;;;;4935274;28;20125;-90
2022/12/07 11:26:22;;;;;;;4.05;0.90;;;4.50;99.90;;;;;;4969542;28;20000;-88
2022/12/07 11:29:05;;;;;;;3.10;0.82;;;4.30;99.90;;;;;;4980588;28;20083;-90
2022/12/07 11:31:54;;;;;;;2.72;0.70;;;4.30;99.90;;;;;;4986731;28;20448;-90
2022/12/07 11:34:41;;;;;;;3.80;0.77;;;4.40;99.90;;;;;;4940470;28;20092;-89
2022/12/07 11:37:14;;;;;;;2.22;0.70;;;4.50;99.90;;;;;;4998760;28;20041;-89
2022/12/07 11:39:49;;;;;;;3.95;1.02;;;4.50;99.90;;;;;;4997286;28;20430;-89
2022/12/07 11:42:27;;;;;;;6.25;0.80;;;4.70;99.90;;;;;;4980902;28;20141;-88
2022/12/07 11:45:11;;;;;;;4.50;0.88;;;4.80;99.90;;;;;;5002848;28;20060;-89
2022/12/07 11:51:26;;;;;;;4.00;0.73;;;5.10;99.90;;;;;;4995249;28;20410;-88
2022/12/07 11:54:31;;;;;;;1.75;0.60;;;5.20;99.90;;;;;;4968120;28;20483;-88
2022/12/07 11:57:39;;;;;;;5.57;0.70;;;5.40;99.90;;;;;;4968661;28;20077;-88
2022/12/07 12:00:17;;;;;;;6.70;0.70;;;5.60;99.90;;;;;;4975500;28;20413;-89
2022/12/07 12:03:11;;;;;;;3.80;0.55;;;5.80;99.90;;;;;;4973740;28;20049;-89
2022/12/07 12:05:39;;;;;;;1.98;0.57;;;5.90;99.90;;;;;;4980876;28;20034;-88
2022/12/07 12:08:19;;;;;;;5.50;0.70;;;6.00;99.90;;;;;;4960994;28;20060;-88
2022/12/07 12:11:19;;;;;;;4.45;0.90;;;6.00;99.90;;;;;;4967784;28;20076;-88
2022/12/07 12:14:15;;;;;;;3.90;1.00;;;6.20;99.90;;;;;;4978027;28;20113;-87
2022/12/07 12:17:00;;;;;;;2.08;0.70;;;6.30;99.90;;;;;;4966313;28;20048;-88
2022/12/07 12:19:45;;;;;;;2.25;0.60;;;6.20;99.90;;;;;;4985164;28;20202;-88
2022/12/07 12:22:19;;;;;;;;;;;6.20;99.90;;;;;;4981725;28;20069;-89
2022/12/07 12:24:50;;;;;;;2.72;0.70;;;6.10;99.90;;;;;;4985168;28;19925;-89
2022/12/07 12:27:29;;;;;;;4.35;0.95;;;6.10;99.90;;;;;;4974596;28;20046;-88
2022/12/07 12:29:59;;;;;;;3.35;0.75;;;6.10;99.90;;;;;;4978207;28;20137;-87
2022/12/07 12:32:48;;;;;;;7.28;1.05;;;6.00;99.90;;;;;;4990665;28;20041;-88
2022/12/07 12:35:30;;;;;;;5.20;1.00;;;6.00;99.90;;;;;;4966871;28;20056;-88
2022/12/07 12:38:33;;;;;;;5.97;0.95;;;6.00;99.90;;;;;;4962628;28;20072;-88
2022/12/07 12:41:06;;;;;;;3.20;0.93;;;6.00;99.90;;;;;;4996646;28;20396;-88
2022/12/07 12:43:52;;;;;;;8.32;1.33;;;6.00;99.90;;;;;;4974038;28;20045;-88
2022/12/07 12:46:33;;;;;;;7.05;0.90;;;6.00;99.90;;;;;;4977377;28;20092;-88
2022/12/07 12:49:19;;;;;;;8.18;1.02;;;6.10;99.90;;;;;;4986693;28;20041;-88
2022/12/07 12:51:50;;;;;;;9.32;1.05;;;6.20;99.90;;;;;;4979501;28;20700;-87
2022/12/07 12:54:35;;;;;;;3.50;0.73;;;6.20;99.90;;;;;;4976382;28;20041;-87
2022/12/07 12:57:30;;;;;;;3.80;1.00;;;6.10;99.90;;;;;;4959739;28;20042;-88
2022/12/07 13:00:03;;;;;;;5.97;1.00;;;6.10;99.90;;;;;;4963981;28;20054;-88
2022/12/07 13:02:38;;;;;;;3.85;0.80;;;6.00;99.90;;;;;;4975119;28;20042;-88
2022/12/07 13:05:09;;;;;;;4.05;0.70;;;5.80;99.90;;;;;;4962555;28;20370;-88
2022/12/07 13:07:51;;;;;;;2.70;0.73;;;5.50;99.90;;;;;;4980305;28;20030;-88
2022/12/07 13:10:28;;;;;;;0.75;0.40;;;5.30;99.90;;;;;;4979478;28;20495;-88
2022/12/07 13:13:00;;;;;;;3.42;0.60;;;5.10;99.90;;;;;;4987201;28;20477;-88
2022/12/07 13:15:45;;;;;;;2.08;0.40;;;5.00;99.90;;;;;;4960398;28;21167;-88
2022/12/07 13:18:32;;;;;;;0.70;0.40;;;4.80;99.90;;;;;;4993820;28;20047;-86
2022/12/07 13:21:07;;;;;;;5.55;0.57;;;4.70;99.90;;;;;;4987814;28;20045;-88
2022/12/07 13:23:38;;;;;;;2.28;0.63;;;4.70;99.90;;;;;;4971408;28;20045;-87
2022/12/07 13:26:23;;;;;;;4.70;0.60;;;4.60;99.90;;;;;;4985551;28;20034;-88
2022/12/07 13:29:05;;;;;;;;;;;4.60;99.90;;;;;;4980023;28;20037;-88
2022/12/07 13:31:41;;;;;;;3.90;0.57;;;4.60;99.90;;;;;;4974691;28;20384;-86
2022/12/07 13:34:37;;;;;;;2.42;0.45;;;4.50;99.90;;;;;;4986456;28;20038;-87
2022/12/07 13:37:21;;;;;;;4.22;0.80;;;4.50;99.90;;;;;;4983092;28;20272;-88
2022/12/07 13:39:51;;;;;;;3.03;1.15;;;4.50;99.90;;;;;;4978033;28;20045;-88
2022/12/07 13:42:29;;;;;;;5.07;0.60;;;4.50;99.90;;;;;;4966140;28;20987;-87
2022/12/07 13:44:58;;;;;;;2.92;0.50;;;4.40;99.90;;;;;;4975504;28;20042;-88
2022/12/07 13:47:41;;;;;;;2.55;0.40;;;4.40;99.90;;;;;;4992913;28;20485;-88
2022/12/07 13:50:26;;;;;;;3.35;0.40;;;4.40;99.90;;;;;;4963082;28;20042;-88
2022/12/07 13:53:01;;;;;;;1.75;0.63;;;4.40;99.90;;;;;;4965581;28;20045;-88